Enter the Airport ICAO Code

Search by Airport or City

Current Weather

SARI | Cataratas del Iguaz˙ International Airport

Puerto Iguaz˙,áMisiones, Argentina

Last Update 52 Minutes Ago

Clear Sky

Temperature of 17 ║C

Light Winds from NorthEast

Temperature

17 ║C

Dew Point Temperature

15 ║C

Relative Humidity

88.07 %

Wind Direction

NorthEast (040║, Ranging from 360║ to 090║)

Wind Velocity

6 km/h (03 kt)

Gusts

None

Visibility

No Significant Reductions

Sea Level Pressure

1020 hPa (Hectopascals)

Layers of Clouds

None

METAR SARI 031300Z 04003KT 360V090 CAVOK 17/15 Q1020 RMK PP000

Weather Forecast

SARI | Cataratas del Iguaz˙ International Airport

Puerto Iguaz˙,áMisiones, Argentina

Forecast valid for the next 22 Hours

From now on it is expected:

Clear Sky

Moderate Winds from NorthEast

Maximum Temperature

26 ║C in 4 Hours

Minimum Temperature

13 ║C in 20 Hours

TAF SARI 031100Z 0312/0412 05010KT CAVOK TX26/0318Z TN13/0410Z